createdAt,value
2022-10-17T06:23:06.462Z,13.80
2022-10-17T06:25:34.715Z,13.80
2022-10-17T06:28:02.555Z,13.80
2022-10-17T06:30:30.440Z,13.80
2022-10-17T06:32:58.320Z,13.80
2022-10-17T06:35:26.345Z,13.80
2022-10-17T06:37:54.137Z,13.80
2022-10-17T06:40:23.287Z,13.80
2022-10-17T06:42:51.132Z,13.80
2022-10-17T06:45:18.986Z,13.80
2022-10-17T06:47:46.822Z,13.80
2022-10-17T06:50:14.665Z,13.80
2022-10-17T06:52:42.614Z,13.80
2022-10-17T06:55:10.807Z,13.80
2022-10-17T06:57:39.966Z,13.80
2022-10-17T07:00:08.806Z,13.80
2022-10-17T07:02:36.798Z,13.80
2022-10-17T07:05:04.745Z,13.80
2022-10-17T07:07:33.231Z,13.70
2022-10-17T07:10:01.091Z,13.80
2022-10-17T07:12:28.901Z,13.80
2022-10-17T07:14:58.104Z,13.80
2022-10-17T07:17:25.929Z,13.70
2022-10-17T07:19:53.754Z,13.80
2022-10-17T07:22:25.226Z,13.80
2022-10-17T07:24:53.054Z,13.80
2022-10-17T07:27:20.878Z,13.80
2022-10-17T07:29:48.739Z,13.80
2022-10-17T07:32:17.915Z,13.80
2022-10-17T07:34:45.755Z,13.80
2022-10-17T07:37:15.734Z,13.80
2022-10-17T07:39:43.596Z,13.80
2022-10-17T07:42:17.522Z,13.80
2022-10-17T07:44:47.313Z,13.80
2022-10-17T07:47:15.177Z,13.80
2022-10-17T07:49:45.211Z,13.80
2022-10-17T07:52:17.550Z,13.80
2022-10-17T07:54:45.507Z,13.80
2022-10-17T07:57:13.312Z,13.90
2022-10-17T07:59:41.814Z,13.90
2022-10-17T08:02:15.144Z,13.90
2022-10-17T08:04:44.298Z,13.90
2022-10-17T08:07:21.840Z,14.00
2022-10-17T08:09:52.383Z,14.00
2022-10-17T08:12:20.425Z,14.10
2022-10-17T08:14:48.526Z,14.10
2022-10-17T08:17:16.398Z,14.10
2022-10-17T08:19:45.568Z,14.20
2022-10-17T08:22:13.497Z,14.20
2022-10-17T08:24:42.730Z,14.20
2022-10-17T08:27:12.996Z,14.30
2022-10-17T08:29:41.696Z,14.30
2022-10-17T08:32:10.161Z,14.40
2022-10-17T08:34:38.338Z,14.40
2022-10-17T08:37:07.702Z,14.50
2022-10-17T08:39:35.596Z,14.50
2022-10-17T08:42:32.061Z,14.50
2022-10-17T08:45:09.144Z,14.60
2022-10-17T08:47:43.261Z,14.60
2022-10-17T08:50:18.436Z,14.70
2022-10-17T08:52:52.155Z,14.80
2022-10-17T08:55:41.371Z,14.80
2022-10-17T08:58:15.526Z,14.90
2022-10-17T09:00:48.960Z,14.90
2022-10-17T09:03:32.109Z,15.00
2022-10-17T09:06:11.832Z,15.00
2022-10-17T09:08:49.524Z,15.10
2022-10-17T09:11:33.390Z,15.10
2022-10-17T09:29:09.625Z,15.50
2022-10-17T09:31:44.094Z,15.60
